sensor_id;sensor_type;location;lat;lon;timestamp;pressure;altitude;pressure_sealevel;temperature;humidity
73085;BME280;62974;49.460;10.892;2023-04-08T00:02:19;97945.81;;;5.93;74.51
73085;BME280;62974;49.460;10.892;2023-04-08T00:04:47;97946.97;;;5.98;74.77
73085;BME280;62974;49.460;10.892;2023-04-08T00:07:14;97950.47;;;5.99;74.00
73085;BME280;62974;49.460;10.892;2023-04-08T00:09:42;97948.47;;;6.01;72.62
73085;BME280;62974;49.460;10.892;2023-04-08T00:12:09;97952.63;;;5.95;74.16
73085;BME280;62974;49.460;10.892;2023-04-08T00:14:37;97947.44;;;5.86;74.51
73085;BME280;62974;49.460;10.892;2023-04-08T00:17:07;97953.28;;;5.89;73.51
73085;BME280;62974;49.460;10.892;2023-04-08T00:19:37;97945.09;;;5.83;73.92
73085;BME280;62974;49.460;10.892;2023-04-08T00:22:05;97954.63;;;5.77;74.39
73085;BME280;62974;49.460;10.892;2023-04-08T00:24:33;97956.44;;;5.85;73.64
73085;BME280;62974;49.460;10.892;2023-04-08T00:27:01;97956.28;;;5.86;74.14
73085;BME280;62974;49.460;10.892;2023-04-08T00:29:29;97957.25;;;5.85;73.82
73085;BME280;62974;49.460;10.892;2023-04-08T00:31:56;97958.63;;;5.81;73.62
73085;BME280;62974;49.460;10.892;2023-04-08T00:34:24;97956.75;;;5.82;73.35
73085;BME280;62974;49.460;10.892;2023-04-08T00:36:53;97955.59;;;5.76;74.15
73085;BME280;62974;49.460;10.892;2023-04-08T00:39:21;97961.28;;;5.73;74.42
73085;BME280;62974;49.460;10.892;2023-04-08T00:41:49;97955.28;;;5.79;73.37
73085;BME280;62974;49.460;10.892;2023-04-08T00:44:16;97950.63;;;5.81;72.65
73085;BME280;62974;49.460;10.892;2023-04-08T00:46:44;97955.75;;;5.75;73.48
73085;BME280;62974;49.460;10.892;2023-04-08T00:49:14;97956.59;;;5.75;74.14
73085;BME280;62974;49.460;10.892;2023-04-08T00:51:42;97955.25;;;5.71;73.51
73085;BME280;62974;49.460;10.892;2023-04-08T00:54:11;97953.44;;;5.72;73.43
73085;BME280;62974;49.460;10.892;2023-04-08T00:56:39;97961.78;;;5.68;73.42
73085;BME280;62974;49.460;10.892;2023-04-08T00:59:07;97961.78;;;5.68;73.30
73085;BME280;62974;49.460;10.892;2023-04-08T01:01:42;97970.59;;;5.61;74.55
73085;BME280;62974;49.460;10.892;2023-04-08T01:04:18;97971.41;;;5.61;73.54
73085;BME280;62974;49.460;10.892;2023-04-08T01:06:55;97972.91;;;5.56;73.53
73085;BME280;62974;49.460;10.892;2023-04-08T01:09:29;97981.38;;;5.51;74.42
73085;BME280;62974;49.460;10.892;2023-04-08T01:11:59;97976.91;;;5.60;73.77
73085;BME280;62974;49.460;10.892;2023-04-08T01:14:31;97973.41;;;5.51;73.80
73085;BME280;62974;49.460;10.892;2023-04-08T01:17:01;97975.06;;;5.52;73.08
73085;BME280;62974;49.460;10.892;2023-04-08T01:19:32;97980.06;;;5.47;74.21
73085;BME280;62974;49.460;10.892;2023-04-08T01:22:02;97975.06;;;5.44;74.33
73085;BME280;62974;49.460;10.892;2023-04-08T01:24:35;97978.72;;;5.51;72.52
73085;BME280;62974;49.460;10.892;2023-04-08T01:27:07;97975.56;;;5.48;73.24
73085;BME280;62974;49.460;10.892;2023-04-08T01:29:36;97972.22;;;5.46;73.72
73085;BME280;62974;49.460;10.892;2023-04-08T01:32:06;97974.38;;;5.50;72.63
73085;BME280;62974;49.460;10.892;2023-04-08T01:34:35;97979.22;;;5.47;73.51
73085;BME280;62974;49.460;10.892;2023-04-08T01:37:03;97986.84;;;5.34;75.99
73085;BME280;62974;49.460;10.892;2023-04-08T01:39:32;97975.03;;;5.36;74.11
73085;BME280;62974;49.460;10.892;2023-04-08T01:42:01;97970.38;;;5.46;74.01
73085;BME280;62974;49.460;10.892;2023-04-08T01:44:30;97977.56;;;5.54;72.94
73085;BME280;62974;49.460;10.892;2023-04-08T01:46:59;97971.22;;;5.55;72.44
73085;BME280;62974;49.460;10.892;2023-04-08T01:49:28;97979.88;;;5.41;74.16
73085;BME280;62974;49.460;10.892;2023-04-08T01:51:57;97975.34;;;5.17;75.76
73085;BME280;62974;49.460;10.892;2023-04-08T01:54:26;97979.53;;;4.86;79.54
73085;BME280;62974;49.460;10.892;2023-04-08T01:56:54;97980.47;;;5.18;77.75
73085;BME280;62974;49.460;10.892;2023-04-08T01:59:28;97970.84;;;5.34;75.11
73085;BME280;62974;49.460;10.892;2023-04-08T02:01:59;97981.25;;;5.03;77.90
73085;BME280;62974;49.460;10.892;2023-04-08T02:04:28;97985.97;;;5.09;78.92
73085;BME280;62974;49.460;10.892;2023-04-08T02:06:56;97977.47;;;5.21;77.79
73085;BME280;62974;49.460;10.892;2023-04-08T02:09:24;97989.38;;;4.85;80.55
73085;BME280;62974;49.460;10.892;2023-04-08T02:11:52;97980.22;;;4.88;81.31
73085;BME280;62974;49.460;10.892;2023-04-08T02:14:20;97980.53;;;4.85;81.87
73085;BME280;62974;49.460;10.892;2023-04-08T02:16:52;97977.16;;;5.16;79.03
73085;BME280;62974;49.460;10.892;2023-04-08T02:19:24;97976.16;;;5.26;77.19
73085;BME280;62974;49.460;10.892;2023-04-08T02:21:58;97981.66;;;5.24;78.21
73085;BME280;62974;49.460;10.892;2023-04-08T02:24:29;97984.13;;;5.09;79.22
73085;BME280;62974;49.460;10.892;2023-04-08T02:26:59;97990.97;;;4.78;81.47
73085;BME280;62974;49.460;10.892;2023-04-08T02:29:28;97993.50;;;4.54;83.28
73085;BME280;62974;49.460;10.892;2023-04-08T02:31:57;97989.28;;;4.69;84.78
73085;BME280;62974;49.460;10.892;2023-04-08T02:34:29;97991.97;;;4.77;84.33
73085;BME280;62974;49.460;10.892;2023-04-08T02:36:57;97990.06;;;4.95;80.64
73085;BME280;62974;49.460;10.892;2023-04-08T02:39:30;97988.28;;;5.12;79.98
73085;BME280;62974;49.460;10.892;2023-04-08T02:41:58;97995.31;;;4.45;85.52
73085;BME280;62974;49.460;10.892;2023-04-08T02:44:25;98006.69;;;4.63;85.12
73085;BME280;62974;49.460;10.892;2023-04-08T02:46:53;97996.88;;;4.98;81.36
73085;BME280;62974;49.460;10.892;2023-04-08T02:49:21;98002.03;;;4.57;84.90
73085;BME280;62974;49.460;10.892;2023-04-08T02:51:49;98004.19;;;4.62;84.98
73085;BME280;62974;49.460;10.892;2023-04-08T02:54:17;98006.75;;;4.71;84.30
73085;BME280;62974;49.460;10.892;2023-04-08T02:56:44;98004.34;;;4.94;82.11
73085;BME280;62974;49.460;10.892;2023-04-08T02:59:12;98004.81;;;4.90;81.95
73085;BME280;62974;49.460;10.892;2023-04-08T03:01:41;98009.63;;;4.86;82.58
73085;BME280;62974;49.460;10.892;2023-04-08T03:04:09;97999.91;;;5.11;80.41
73085;BME280;62974;49.460;10.892;2023-04-08T03:06:36;98002.72;;;5.01;80.91
73085;BME280;62974;49.460;10.892;2023-04-08T03:09:05;98002.44;;;4.79;82.65
73085;BME280;62974;49.460;10.892;2023-04-08T03:11:33;98002.63;;;4.77;83.08
73085;BME280;62974;49.460;10.892;2023-04-08T03:14:00;97999.31;;;4.83;81.82
73085;BME280;62974;49.460;10.892;2023-04-08T03:16:27;98006.19;;;4.60;82.49
73085;BME280;62974;49.460;10.892;2023-04-08T03:18:55;98007.44;;;4.22;85.65
73085;BME280;62974;49.460;10.892;2023-04-08T03:21:23;98010.25;;;4.46;85.62
73085;BME280;62974;49.460;10.892;2023-04-08T03:23:52;98009.53;;;4.36;84.92
73085;BME280;62974;49.460;10.892;2023-04-08T03:26:21;98009.91;;;4.41;85.41
73085;BME280;62974;49.460;10.892;2023-04-08T03:28:48;98015.94;;;4.51;84.05
73085;BME280;62974;49.460;10.892;2023-04-08T03:31:16;98015.19;;;4.15;87.79
73085;BME280;62974;49.460;10.892;2023-04-08T03:33:46;98008.69;;;4.61;84.60
73085;BME280;62974;49.460;10.892;2023-04-08T03:36:15;98011.69;;;5.00;80.12
73085;BME280;62974;49.460;10.892;2023-04-08T03:38:43;98008.72;;;5.03;79.05
73085;BME280;62974;49.460;10.892;2023-04-08T03:41:11;98012.72;;;5.07;79.03
73085;BME280;62974;49.460;10.892;2023-04-08T03:43:39;98012.25;;;5.12;77.78
73085;BME280;62974;49.460;10.892;2023-04-08T03:46:07;98007.25;;;5.09;77.91
73085;BME280;62974;49.460;10.892;2023-04-08T03:48:35;98015.03;;;5.02;78.63
73085;BME280;62974;49.460;10.892;2023-04-08T03:51:02;98009.94;;;5.17;76.74
73085;BME280;62974;49.460;10.892;2023-04-08T03:53:30;98015.75;;;5.12;76.97
73085;BME280;62974;49.460;10.892;2023-04-08T03:55:58;98009.91;;;5.09;77.82
73085;BME280;62974;49.460;10.892;2023-04-08T03:58:26;98012.09;;;5.13;76.76
73085;BME280;62974;49.460;10.892;2023-04-08T04:00:55;98010.41;;;5.12;76.40
73085;BME280;62974;49.460;10.892;2023-04-08T04:03:22;98014.91;;;5.12;76.73
73085;BME280;62974;49.460;10.892;2023-04-08T04:05:50;98005.75;;;5.14;76.14
73085;BME280;62974;49.460;10.892;2023-04-08T04:08:18;98009.25;;;5.15;75.49
73085;BME280;62974;49.460;10.892;2023-04-08T04:10:45;98021.91;;;5.13;76.18
73085;BME280;62974;49.460;10.892;2023-04-08T04:13:13;98023.28;;;4.91;77.98
73085;BME280;62974;49.460;10.892;2023-04-08T04:15:41;98021.53;;;5.08;76.73
73085;BME280;62974;49.460;10.892;2023-04-08T04:18:10;98026.69;;;5.01;76.39
73085;BME280;62974;49.460;10.892;2023-04-08T04:20:38;98019.50;;;5.02;76.22
73085;BME280;62974;49.460;10.892;2023-04-08T04:23:07;98029.41;;;4.50;79.83
73085;BME280;62974;49.460;10.892;2023-04-08T04:25:35;98033.84;;;4.41;80.91
73085;BME280;62974;49.460;10.892;2023-04-08T04:28:04;98036.69;;;4.73;79.39
73085;BME280;62974;49.460;10.892;2023-04-08T04:30:35;98025.44;;;4.88;77.79
73085;BME280;62974;49.460;10.892;2023-04-08T04:33:03;98047.09;;;4.15;80.70
73085;BME280;62974;49.460;10.892;2023-04-08T04:35:32;98038.41;;;4.91;77.45
73085;BME280;62974;49.460;10.892;2023-04-08T04:38:00;98037.63;;;4.98;77.45
73085;BME280;62974;49.460;10.892;2023-04-08T04:40:27;98038.81;;;5.04;76.47
73085;BME280;62974;49.460;10.892;2023-04-08T04:42:54;98031.50;;;5.06;75.77
73085;BME280;62974;49.460;10.892;2023-04-08T04:45:22;98039.31;;;4.99;76.16
73085;BME280;62974;49.460;10.892;2023-04-08T04:47:49;98037.66;;;5.06;75.92
73085;BME280;62974;49.460;10.892;2023-04-08T04:50:19;98036.50;;;5.01;76.09
73085;BME280;62974;49.460;10.892;2023-04-08T04:52:48;98046.13;;;4.68;77.72
73085;BME280;62974;49.460;10.892;2023-04-08T04:55:15;98039.31;;;4.99;75.89
73085;BME280;62974;49.460;10.892;2023-04-08T04:57:43;98046.63;;;4.97;75.41
73085;BME280;62974;49.460;10.892;2023-04-08T05:00:11;98044.00;;;5.05;74.69
73085;BME280;62974;49.460;10.892;2023-04-08T05:02:38;98045.78;;;4.97;75.97
73085;BME280;62974;49.460;10.892;2023-04-08T05:05:07;98054.09;;;5.02;75.66
73085;BME280;62974;49.460;10.892;2023-04-08T05:07:35;98054.19;;;4.33;79.43
73085;BME280;62974;49.460;10.892;2023-04-08T05:10:04;98055.31;;;4.48;79.14
73085;BME280;62974;49.460;10.892;2023-04-08T05:12:32;98056.13;;;4.48;77.73
73085;BME280;62974;49.460;10.892;2023-04-08T05:15:00;98058.69;;;4.58;77.33
73085;BME280;62974;49.460;10.892;2023-04-08T05:17:27;98057.94;;;4.22;78.66
73085;BME280;62974;49.460;10.892;2023-04-08T05:19:55;98059.84;;;4.30;78.67
73085;BME280;62974;49.460;10.892;2023-04-08T05:22:22;98063.34;;;4.12;80.08
73085;BME280;62974;49.460;10.892;2023-04-08T05:24:50;98069.34;;;3.79;81.38
73085;BME280;62974;49.460;10.892;2023-04-08T05:27:18;98067.50;;;4.15;81.68
73085;BME280;62974;49.460;10.892;2023-04-08T05:29:46;98066.84;;;4.39;79.50
73085;BME280;62974;49.460;10.892;2023-04-08T05:32:14;98072.34;;;4.37;80.17
73085;BME280;62974;49.460;10.892;2023-04-08T05:34:42;98070.25;;;4.74;77.78
73085;BME280;62974;49.460;10.892;2023-04-08T05:37:10;98070.66;;;4.62;78.11
73085;BME280;62974;49.460;10.892;2023-04-08T05:39:38;98064.75;;;4.68;78.22
73085;BME280;62974;49.460;10.892;2023-04-08T05:42:05;98089.00;;;4.04;80.22
73085;BME280;62974;49.460;10.892;2023-04-08T05:44:34;98082.22;;;4.27;78.78
73085;BME280;62974;49.460;10.892;2023-04-08T05:47:01;98091.38;;;3.89;81.14
73085;BME280;62974;49.460;10.892;2023-04-08T05:49:29;98099.78;;;3.85;80.56
73085;BME280;62974;49.460;10.892;2023-04-08T05:51:57;98092.44;;;4.14;79.46
73085;BME280;62974;49.460;10.892;2023-04-08T05:54:24;98099.31;;;4.24;78.82
73085;BME280;62974;49.460;10.892;2023-04-08T05:56:52;98096.94;;;4.39;77.93
73085;BME280;62974;49.460;10.892;2023-04-08T05:59:19;98092.19;;;4.25;78.16
73085;BME280;62974;49.460;10.892;2023-04-08T06:01:48;98096.72;;;4.33;78.73
73085;BME280;62974;49.460;10.892;2023-04-08T06:04:16;98091.88;;;4.46;78.12
73085;BME280;62974;49.460;10.892;2023-04-08T06:06:43;98092.41;;;4.32;77.42
73085;BME280;62974;49.460;10.892;2023-04-08T06:09:11;98098.75;;;4.39;76.75
73085;BME280;62974;49.460;10.892;2023-04-08T06:11:38;98101.53;;;4.11;76.64
73085;BME280;62974;49.460;10.892;2023-04-08T06:14:06;98108.13;;;4.25;76.85
73085;BME280;62974;49.460;10.892;2023-04-08T06:16:33;98104.00;;;4.31;77.55
73085;BME280;62974;49.460;10.892;2023-04-08T06:19:02;98109.03;;;4.34;76.88
73085;BME280;62974;49.460;10.892;2023-04-08T06:21:32;98105.91;;;4.38;76.44
73085;BME280;62974;49.460;10.892;2023-04-08T06:24:00;98106.28;;;4.43;75.80
73085;BME280;62974;49.460;10.892;2023-04-08T06:26:28;98114.25;;;4.43;76.25
73085;BME280;62974;49.460;10.892;2023-04-08T06:28:55;98110.41;;;4.38;76.51
73085;BME280;62974;49.460;10.892;2023-04-08T06:31:23;98104.91;;;4.57;76.10
73085;BME280;62974;49.460;10.892;2023-04-08T06:33:50;98111.41;;;4.62;76.69
73085;BME280;62974;49.460;10.892;2023-04-08T06:36:21;98112.66;;;4.76;76.21
73085;BME280;62974;49.460;10.892;2023-04-08T06:38:48;98111.63;;;4.69;75.70
73085;BME280;62974;49.460;10.892;2023-04-08T06:41:16;98111.56;;;4.61;76.43
73085;BME280;62974;49.460;10.892;2023-04-08T06:43:44;98118.25;;;4.65;77.03
73085;BME280;62974;49.460;10.892;2023-04-08T06:46:11;98116.72;;;4.62;78.22
73085;BME280;62974;49.460;10.892;2023-04-08T06:48:39;98128.84;;;4.39;77.29
73085;BME280;62974;49.460;10.892;2023-04-08T06:51:08;98132.78;;;4.35;78.16
73085;BME280;62974;49.460;10.892;2023-04-08T06:53:38;98131.13;;;4.34;79.31
73085;BME280;62974;49.460;10.892;2023-04-08T06:56:05;98140.53;;;4.46;79.34
73085;BME280;62974;49.460;10.892;2023-04-08T06:58:33;98158.63;;;4.25;80.86
73085;BME280;62974;49.460;10.892;2023-04-08T07:01:00;98162.13;;;4.08;83.02
73085;BME280;62974;49.460;10.892;2023-04-08T07:03:28;98155.13;;;4.42;81.96
73085;BME280;62974;49.460;10.892;2023-04-08T07:05:56;98164.53;;;4.19;85.65
73085;BME280;62974;49.460;10.892;2023-04-08T07:08:24;98170.00;;;4.00;87.60
73085;BME280;62974;49.460;10.892;2023-04-08T07:10:52;98165.84;;;4.15;89.42
73085;BME280;62974;49.460;10.892;2023-04-08T07:13:20;98162.56;;;4.39;90.13
73085;BME280;62974;49.460;10.892;2023-04-08T07:15:47;98173.97;;;4.49;89.45
73085;BME280;62974;49.460;10.892;2023-04-08T07:18:15;98179.72;;;4.26;91.28
73085;BME280;62974;49.460;10.892;2023-04-08T07:20:43;98182.22;;;4.10;90.97
73085;BME280;62974;49.460;10.892;2023-04-08T07:23:10;98174.28;;;4.28;90.26
73085;BME280;62974;49.460;10.892;2023-04-08T07:25:38;98177.03;;;3.91;93.37
73085;BME280;62974;49.460;10.892;2023-04-08T07:28:07;98173.66;;;3.71;93.08
73085;BME280;62974;49.460;10.892;2023-04-08T07:30:34;98181.16;;;3.86;94.32
73085;BME280;62974;49.460;10.892;2023-04-08T07:33:02;98185.03;;;3.64;95.47
73085;BME280;62974;49.460;10.892;2023-04-08T07:35:29;98181.53;;;3.91;94.81
73085;BME280;62974;49.460;10.892;2023-04-08T07:37:57;98192.56;;;3.68;96.12
73085;BME280;62974;49.460;10.892;2023-04-08T07:40:25;98192.34;;;3.79;96.22
73085;BME280;62974;49.460;10.892;2023-04-08T07:42:53;98193.91;;;4.00;94.47
73085;BME280;62974;49.460;10.892;2023-04-08T07:45:22;98192.78;;;3.75;97.36
73085;BME280;62974;49.460;10.892;2023-04-08T07:47:49;98197.56;;;3.71;96.79
73085;BME280;62974;49.460;10.892;2023-04-08T07:50:17;98199.25;;;3.72;97.32
73085;BME280;62974;49.460;10.892;2023-04-08T07:52:44;98202.84;;;3.81;98.25
73085;BME280;62974;49.460;10.892;2023-04-08T07:55:12;98197.50;;;4.08;97.68
73085;BME280;62974;49.460;10.892;2023-04-08T07:57:39;98196.16;;;4.40;94.49
73085;BME280;62974;49.460;10.892;2023-04-08T08:00:08;98202.13;;;4.06;95.09
73085;BME280;62974;49.460;10.892;2023-04-08T08:02:37;98213.66;;;3.70;97.34
73085;BME280;62974;49.460;10.892;2023-04-08T08:05:05;98207.41;;;3.61;98.14
73085;BME280;62974;49.460;10.892;2023-04-08T08:07:33;98209.47;;;3.67;96.55
73085;BME280;62974;49.460;10.892;2023-04-08T08:10:00;98215.59;;;3.95;97.62
73085;BME280;62974;49.460;10.892;2023-04-08T08:12:28;98215.03;;;4.01;97.33
73085;BME280;62974;49.460;10.892;2023-04-08T08:14:55;98214.44;;;3.80;96.69
73085;BME280;62974;49.460;10.892;2023-04-08T08:17:25;98223.66;;;4.03;96.01
73085;BME280;62974;49.460;10.892;2023-04-08T08:19:56;98220.97;;;4.13;96.64
73085;BME280;62974;49.460;10.892;2023-04-08T08:22:24;98224.38;;;4.05;96.51
73085;BME280;62974;49.460;10.892;2023-04-08T08:24:54;98228.00;;;4.04;97.13
73085;BME280;62974;49.460;10.892;2023-04-08T08:27:22;98223.34;;;3.89;96.43
73085;BME280;62974;49.460;10.892;2023-04-08T08:29:50;98231.31;;;3.89;98.02
73085;BME280;62974;49.460;10.892;2023-04-08T08:32:18;98226.00;;;4.34;95.23
73085;BME280;62974;49.460;10.892;2023-04-08T08:34:46;98232.09;;;3.99;96.63
73085;BME280;62974;49.460;10.892;2023-04-08T08:37:14;98229.41;;;4.44;93.46
73085;BME280;62974;49.460;10.892;2023-04-08T08:39:42;98233.56;;;4.11;96.27
73085;BME280;62974;49.460;10.892;2023-04-08T08:42:18;98240.88;;;3.82;97.97
73085;BME280;62974;49.460;10.892;2023-04-08T08:44:45;98238.97;;;3.64;98.57
73085;BME280;62974;49.460;10.892;2023-04-08T08:47:13;98240.91;;;3.99;98.62
73085;BME280;62974;49.460;10.892;2023-04-08T08:49:40;98231.47;;;4.32;95.89
73085;BME280;62974;49.460;10.892;2023-04-08T08:52:08;98242.28;;;4.03;97.29
73085;BME280;62974;49.460;10.892;2023-04-08T08:54:38;98240.41;;;4.13;97.61
73085;BME280;62974;49.460;10.892;2023-04-08T08:57:15;98244.81;;;4.22;96.84
73085;BME280;62974;49.460;10.892;2023-04-08T08:59:44;98243.78;;;4.33;95.91
73085;BME280;62974;49.460;10.892;2023-04-08T09:02:25;98253.06;;;4.02;97.55
73085;BME280;62974;49.460;10.892;2023-04-08T09:04:58;98248.84;;;4.26;95.99
73085;BME280;62974;49.460;10.892;2023-04-08T09:07:27;98249.44;;;4.38;95.95
73085;BME280;62974;49.460;10.892;2023-04-08T09:09:58;98253.97;;;4.38;96.79
73085;BME280;62974;49.460;10.892;2023-04-08T09:12:26;98250.91;;;4.50;93.99
73085;BME280;62974;49.460;10.892;2023-04-08T09:15:04;98253.66;;;4.41;93.91
73085;BME280;62974;49.460;10.892;2023-04-08T09:17:33;98263.13;;;4.43;94.99
73085;BME280;62974;49.460;10.892;2023-04-08T09:20:06;98259.53;;;4.17;95.37
73085;BME280;62974;49.460;10.892;2023-04-08T09:22:54;98265.56;;;4.37;95.32
73085;BME280;62974;49.460;10.892;2023-04-08T09:25:25;98262.75;;;4.20;95.21
73085;BME280;62974;49.460;10.892;2023-04-08T09:27:53;98255.91;;;4.36;95.71
73085;BME280;62974;49.460;10.892;2023-04-08T09:30:22;98257.09;;;4.68;92.84
73085;BME280;62974;49.460;10.892;2023-04-08T09:32:51;98255.31;;;4.59;93.73
73085;BME280;62974;49.460;10.892;2023-04-08T09:35:19;98256.75;;;4.54;93.45
73085;BME280;62974;49.460;10.892;2023-04-08T09:37:47;98262.16;;;4.80;92.54
73085;BME280;62974;49.460;10.892;2023-04-08T09:40:15;98259.22;;;4.65;92.65
73085;BME280;62974;49.460;10.892;2023-04-08T09:42:47;98260.13;;;4.73;92.87
73085;BME280;62974;49.460;10.892;2023-04-08T09:45:18;98259.13;;;4.74;93.01
73085;BME280;62974;49.460;10.892;2023-04-08T09:47:54;98266.19;;;4.48;96.08
73085;BME280;62974;49.460;10.892;2023-04-08T09:50:26;98267.47;;;4.44;96.29
73085;BME280;62974;49.460;10.892;2023-04-08T09:53:00;98274.72;;;4.69;96.55
73085;BME280;62974;49.460;10.892;2023-04-08T09:55:29;98266.25;;;4.74;95.76
73085;BME280;62974;49.460;10.892;2023-04-08T09:58:03;98274.09;;;4.58;96.90
73085;BME280;62974;49.460;10.892;2023-04-08T10:00:37;98278.25;;;4.25;97.67
73085;BME280;62974;49.460;10.892;2023-04-08T10:03:10;98273.03;;;4.51;96.82
73085;BME280;62974;49.460;10.892;2023-04-08T10:05:42;98271.41;;;4.58;96.29
73085;BME280;62974;49.460;10.892;2023-04-08T10:08:10;98280.69;;;4.54;96.09
73085;BME280;62974;49.460;10.892;2023-04-08T10:10:38;98268.31;;;4.62;95.85
73085;BME280;62974;49.460;10.892;2023-04-08T10:13:08;98281.09;;;4.59;95.59
73085;BME280;62974;49.460;10.892;2023-04-08T10:15:37;98268.72;;;4.85;93.56
73085;BME280;62974;49.460;10.892;2023-04-08T10:18:31;98272.25;;;4.58;94.46
73085;BME280;62974;49.460;10.892;2023-04-08T10:21:03;98273.28;;;4.57;95.36
73085;BME280;62974;49.460;10.892;2023-04-08T10:23:54;98269.47;;;4.78;96.36
73085;BME280;62974;49.460;10.892;2023-04-08T10:26:35;98274.09;;;4.58;95.32
73085;BME280;62974;49.460;10.892;2023-04-08T10:32:26;98265.75;;;5.14;92.95
73085;BME280;62974;49.460;10.892;2023-04-08T10:34:54;98264.97;;;4.96;93.70
73085;BME280;62974;49.460;10.892;2023-04-08T10:37:22;98267.31;;;4.99;92.54
73085;BME280;62974;49.460;10.892;2023-04-08T10:39:50;98257.50;;;5.17;93.13
73085;BME280;62974;49.460;10.892;2023-04-08T10:42:26;98270.97;;;5.41;93.09
73085;BME280;62974;49.460;10.892;2023-04-08T10:44:58;98262.09;;;5.33;91.91
73085;BME280;62974;49.460;10.892;2023-04-08T10:47:28;98260.94;;;5.35;92.20
73085;BME280;62974;49.460;10.892;2023-04-08T10:49:55;98260.84;;;5.45;91.83
73085;BME280;62974;49.460;10.892;2023-04-08T10:52:22;98264.38;;;5.28;91.88
73085;BME280;62974;49.460;10.892;2023-04-08T10:54:52;98263.03;;;5.24;91.71
73085;BME280;62974;49.460;10.892;2023-04-08T10:57:23;98260.72;;;5.29;91.61
73085;BME280;62974;49.460;10.892;2023-04-08T10:59:51;98258.97;;;5.37;91.59
73085;BME280;62974;49.460;10.892;2023-04-08T11:02:19;98262.16;;;5.41;92.07
73085;BME280;62974;49.460;10.892;2023-04-08T11:04:48;98251.97;;;5.70;91.22
73085;BME280;62974;49.460;10.892;2023-04-08T11:07:19;98257.72;;;5.49;90.90
73085;BME280;62974;49.460;10.892;2023-04-08T11:09:47;98259.09;;;5.61;91.50
73085;BME280;62974;49.460;10.892;2023-04-08T11:12:15;98261.03;;;5.51;90.95
73085;BME280;62974;49.460;10.892;2023-04-08T11:14:44;98266.84;;;5.47;91.38
73085;BME280;62974;49.460;10.892;2023-04-08T11:17:14;98267.81;;;5.46;92.03
73085;BME280;62974;49.460;10.892;2023-04-08T11:19:43;98265.94;;;5.64;91.22
73085;BME280;62974;49.460;10.892;2023-04-08T11:22:12;98262.13;;;5.92;90.46
73085;BME280;62974;49.460;10.892;2023-04-08T11:24:40;98251.31;;;6.02;89.29
73085;BME280;62974;49.460;10.892;2023-04-08T11:27:07;98259.09;;;6.37;89.25
73085;BME280;62974;49.460;10.892;2023-04-08T11:29:36;98254.72;;;6.20;88.26
73085;BME280;62974;49.460;10.892;2023-04-08T11:32:04;98261.72;;;6.21;88.83
73085;BME280;62974;49.460;10.892;2023-04-08T11:34:31;98253.72;;;6.13;87.62
73085;BME280;62974;49.460;10.892;2023-04-08T11:36:59;98250.94;;;6.31;88.09
73085;BME280;62974;49.460;10.892;2023-04-08T11:39:28;98262.66;;;6.62;88.42
73085;BME280;62974;49.460;10.892;2023-04-08T11:41:55;98254.31;;;6.41;86.94
73085;BME280;62974;49.460;10.892;2023-04-08T11:44:29;98257.72;;;6.25;88.20
73085;BME280;62974;49.460;10.892;2023-04-08T11:46:57;98260.16;;;6.02;87.96
73085;BME280;62974;49.460;10.892;2023-04-08T11:49:26;98256.72;;;5.84;89.53
73085;BME280;62974;49.460;10.892;2023-04-08T11:51:55;98255.97;;;5.92;89.68
73085;BME280;62974;49.460;10.892;2023-04-08T11:54:29;98246.03;;;6.10;88.89
73085;BME280;62974;49.460;10.892;2023-04-08T11:56:57;98253.72;;;6.13;89.16
73085;BME280;62974;49.460;10.892;2023-04-08T11:59:26;98249.00;;;6.07;89.20
73085;BME280;62974;49.460;10.892;2023-04-08T12:01:55;98258.72;;;6.16;89.16
73085;BME280;62974;49.460;10.892;2023-04-08T12:04:23;98258.88;;;6.14;89.04
73085;BME280;62974;49.460;10.892;2023-04-08T12:06:51;98262.72;;;6.12;88.65
73085;BME280;62974;49.460;10.892;2023-04-08T12:09:18;98260.41;;;6.25;89.05
73085;BME280;62974;49.460;10.892;2023-04-08T12:11:47;98251.72;;;6.15;89.31
73085;BME280;62974;49.460;10.892;2023-04-08T12:14:14;98250.75;;;6.24;89.06
73085;BME280;62974;49.460;10.892;2023-04-08T12:16:42;98260.28;;;6.35;88.93
73085;BME280;62974;49.460;10.892;2023-04-08T12:19:09;98263.28;;;6.32;89.93
73085;BME280;62974;49.460;10.892;2023-04-08T12:21:37;98258.28;;;6.37;89.03
73085;BME280;62974;49.460;10.892;2023-04-08T12:24:04;98258.63;;;6.42;88.67
73085;BME280;62974;49.460;10.892;2023-04-08T12:26:32;98258.13;;;6.46;88.57
73085;BME280;62974;49.460;10.892;2023-04-08T12:29:01;98264.50;;;6.61;88.24
73085;BME280;62974;49.460;10.892;2023-04-08T12:31:28;98260.34;;;6.75;86.97
73085;BME280;62974;49.460;10.892;2023-04-08T12:33:57;98256.53;;;6.86;86.56
73085;BME280;62974;49.460;10.892;2023-04-08T12:36:24;98252.50;;;7.22;86.29
73085;BME280;62974;49.460;10.892;2023-04-08T12:38:52;98245.66;;;7.36;85.00
73085;BME280;62974;49.460;10.892;2023-04-08T12:41:20;98257.50;;;7.25;85.50
73085;BME280;62974;49.460;10.892;2023-04-08T12:43:47;98253.69;;;7.36;85.08
73085;BME280;62974;49.460;10.892;2023-04-08T12:46:16;98259.88;;;7.28;84.62
73085;BME280;62974;49.460;10.892;2023-04-08T12:48:44;98262.84;;;7.33;84.65
73085;BME280;62974;49.460;10.892;2023-04-08T12:51:13;98256.88;;;7.15;84.71
73085;BME280;62974;49.460;10.892;2023-04-08T12:53:40;98254.84;;;7.25;85.40
73085;BME280;62974;49.460;10.892;2023-04-08T12:56:08;98253.69;;;7.12;85.00
73085;BME280;62974;49.460;10.892;2023-04-08T12:58:36;98257.84;;;7.14;84.73
73085;BME280;62974;49.460;10.892;2023-04-08T13:01:03;98256.53;;;7.02;85.51
73085;BME280;62974;49.460;10.892;2023-04-08T13:03:32;98257.72;;;7.07;84.91
73085;BME280;62974;49.460;10.892;2023-04-08T13:06:01;98259.19;;;6.86;85.83
73085;BME280;62974;49.460;10.892;2023-04-08T13:08:29;98256.38;;;7.03;85.33
73085;BME280;62974;49.460;10.892;2023-04-08T13:10:56;98260.72;;;6.88;86.08
73085;BME280;62974;49.460;10.892;2023-04-08T13:13:24;98264.38;;;6.79;86.29